Time;durP1;ratioP1;P1;durP2;ratioP2;P2;SDS_P1;SDS_P2;PMS_P1;PMS_P2;Temp;Humidity;BMP_temperature;BMP_pressure;BME280_temperature;BME280_humidity;BME280_pressure;Samples;Min_cycle;Max_cycle;Signal;HPM_P1;HPM_P2
2022/02/19 00:02:10;;;;;;;2.35;1.25;;;;;;;0.87;87.66;97980.59;5111536;28;20054;-46
2022/02/19 00:04:36;;;;;;;2.83;1.10;;;;;;;0.89;88.04;97977.13;5114311;27;20040;-46
2022/02/19 00:07:04;;;;;;;1.35;0.95;;;;;;;0.78;88.56;97963.75;5097739;27;20122;-46
2022/02/19 00:09:29;;;;;;;1.58;0.98;;;;;;;0.89;88.57;98005.25;5112740;27;20027;-46
2022/02/19 00:11:55;;;;;;;2.00;1.10;;;;;;;0.91;88.56;97987.31;5113340;27;20510;-46
2022/02/19 00:14:21;;;;;;;7.93;1.15;;;;;;;0.92;88.57;97987.31;5130766;27;20179;-44
2022/02/19 00:16:47;;;;;;;2.10;1.30;;;;;;;0.94;88.55;97982.16;5131685;27;20238;-49
2022/02/19 00:19:14;;;;;;;3.08;1.02;;;;;;;1.01;88.70;97988.78;5098595;27;20039;-46
2022/02/19 00:21:40;;;;;;;3.33;1.30;;;;;;;0.97;88.17;97977.81;5131056;27;20038;-45
2022/02/19 00:24:07;;;;;;;3.28;1.27;;;;;;;1.17;88.07;97993.50;5113863;27;20026;-46
2022/02/19 00:26:33;;;;;;;2.95;1.40;;;;;;;1.26;87.32;97988.16;5095432;27;20039;-47
2022/02/19 00:28:59;;;;;;;2.17;1.17;;;;;;;1.23;86.66;97975.47;5113728;27;20510;-47
2022/02/19 00:31:26;;;;;;;3.97;1.15;;;;;;;1.36;85.91;97982.84;5096852;27;20051;-49
2022/02/19 00:33:53;;;;;;;1.95;0.80;;;;;;;1.38;85.82;98001.53;5113440;27;20410;-45
2022/02/19 00:36:19;;;;;;;1.67;1.05;;;;;;;1.45;85.84;97980.88;5130486;27;20425;-47
2022/02/19 00:38:46;;;;;;;1.30;0.90;;;;;;;1.52;85.03;97989.22;5096529;27;20051;-47
2022/02/19 00:41:14;;;;;;;4.10;1.40;;;;;;;1.55;85.07;97982.34;5116478;27;20482;-46
2022/02/19 00:43:43;;;;;;;2.00;1.30;;;;;;;1.58;84.78;97982.25;5086717;28;20039;-44
2022/02/19 00:46:09;;;;;;;2.22;1.10;;;;;;;1.64;84.67;97984.66;5131053;28;20047;-46
2022/02/19 00:48:35;;;;;;;3.10;1.13;;;;;;;1.58;83.77;97963.47;5096653;28;20043;-45
2022/02/19 00:51:02;;;;;;;3.83;0.60;;;;;;;1.68;83.63;97976.00;5112303;28;20130;-46
2022/02/19 00:53:27;;;;;;;2.22;1.20;;;;;;;1.63;83.41;97971.88;5113218;28;20031;-47
2022/02/19 00:55:54;;;;;;;3.67;1.25;;;;;;;1.70;83.50;97975.97;5091860;28;20088;-47
2022/02/19 00:58:20;;;;;;;1.35;1.10;;;;;;;1.74;83.33;97976.72;5093247;28;20040;-47
2022/02/19 01:00:50;;;;;;;1.17;0.82;;;;;;;1.77;82.92;97968.97;5092752;28;20507;-48
2022/02/19 01:03:26;;;;;;;3.05;0.98;;;;;;;1.81;82.31;97973.97;5112545;28;20126;-46
2022/02/19 01:05:52;;;;;;;2.00;0.85;;;;;;;1.74;82.44;97941.69;5129388;28;20039;-48
2022/02/19 01:08:18;;;;;;;2.30;1.27;;;;;;;1.85;82.18;97955.06;5130941;28;20054;-45
2022/02/19 01:10:43;;;;;;;2.10;1.10;;;;;;;1.88;81.95;97954.16;5107197;28;20438;-45
2022/02/19 01:13:09;;;;;;;2.95;1.10;;;;;;;1.84;82.01;97947.41;5093095;28;20047;-45
2022/02/19 01:15:34;;;;;;;3.95;1.95;;;;;;;1.86;82.03;97943.09;5110673;28;20069;-45
2022/02/19 01:18:00;;;;;;;6.35;2.15;;;;;;;1.86;81.94;97945.66;5112776;28;20046;-45
2022/02/19 01:20:26;;;;;;;1.95;0.65;;;;;;;1.89;82.01;97940.44;5131063;28;20047;-45
2022/02/19 01:22:52;;;;;;;3.05;1.27;;;;;;;1.91;81.59;97926.72;5131302;28;20038;-45
2022/02/19 01:25:18;;;;;;;2.85;1.38;;;;;;;1.93;81.35;97926.69;5130846;28;20398;-46
2022/02/19 01:27:52;;;;;;;4.97;1.13;;;;;;;1.84;81.50;97919.22;5119387;27;20048;-47
2022/02/19 01:30:18;;;;;;;2.75;1.35;;;;;;;1.87;81.26;97931.97;5098153;27;20396;-48
2022/02/19 01:32:46;;;;;;;2.08;1.35;;;;;;;1.90;81.59;97924.19;5116950;27;20047;-47
2022/02/19 01:35:12;;;;;;;2.83;0.88;;;;;;;1.91;81.65;97915.63;5133847;27;20050;-46
2022/02/19 01:37:38;;;;;;;2.28;1.20;;;;;;;1.95;81.50;97915.50;5112987;27;20044;-47
2022/02/19 01:40:04;;;;;;;4.18;1.83;;;;;;;2.03;81.16;97913.56;5096447;28;20040;-46
2022/02/19 01:42:31;;;;;;;3.60;1.75;;;;;;;2.00;80.87;97905.94;5097476;27;20070;-49
2022/02/19 01:44:58;;;;;;;3.72;1.45;;;;;;;2.10;80.80;97915.03;5116789;27;20394;-48
2022/02/19 01:47:24;;;;;;;7.40;1.92;;;;;;;2.13;80.49;97922.66;5097270;27;20088;-46
2022/02/19 01:49:50;;;;;;;2.55;1.60;;;;;;;2.03;80.13;97903.31;5116378;27;20039;-46
2022/02/19 01:52:18;;;;;;;7.47;1.80;;;;;;;2.18;80.39;97919.97;5098170;27;20470;-49
2022/02/19 01:54:45;;;;;;;4.90;1.73;;;;;;;2.19;80.07;97925.94;5099782;27;20506;-46
2022/02/19 01:57:29;;;;;;;5.53;1.58;;;;;;;2.20;79.97;97925.88;5115463;27;20124;-47
2022/02/19 02:00:18;;;;;;;4.80;1.70;;;;;;;2.23;80.09;97917.25;5116398;27;20044;-45
2022/02/19 02:02:53;;;;;;;2.58;1.50;;;;;;;2.20;79.68;97917.38;5133059;27;20489;-47
2022/02/19 02:05:45;;;;;;;3.33;1.92;;;;;;;2.21;79.99;97926.72;5116138;27;20477;-47
2022/02/19 02:08:11;;;;;;;4.93;1.52;;;;;;;2.21;80.11;97929.28;5106321;27;20046;-45
2022/02/19 02:10:39;;;;;;;2.67;1.70;;;;;;;2.18;80.18;97932.78;5115726;27;20047;-46
2022/02/19 02:13:15;;;;;;;2.05;1.00;;;;;;;2.17;80.37;97937.94;5114553;27;20532;-46
2022/02/19 02:15:40;;;;;;;2.35;1.50;;;;;;;2.12;80.63;97925.25;5098767;27;20027;-45
2022/02/19 02:18:16;;;;;;;1.60;1.02;;;;;;;2.09;80.77;97933.88;5118492;27;20125;-48
2022/02/19 02:20:42;;;;;;;4.43;1.60;;;;;;;2.11;80.89;97931.25;5134343;27;20126;-45
2022/02/19 02:23:10;;;;;;;2.97;1.60;;;;;;;2.13;80.84;97935.47;5116057;27;20039;-46
2022/02/19 02:25:36;;;;;;;2.80;1.48;;;;;;;2.08;80.63;97939.91;5132558;27;20050;-46
2022/02/19 02:28:04;;;;;;;2.80;1.30;;;;;;;2.02;81.22;97922.13;5114771;27;20042;-45
2022/02/19 02:30:32;;;;;;;4.60;1.55;;;;;;;2.03;81.46;97928.09;5115927;27;20046;-47
2022/02/19 02:33:11;;;;;;;3.53;1.50;;;;;;;1.97;81.32;97920.56;5100167;27;20583;-47
2022/02/19 02:35:40;;;;;;;4.80;1.45;;;;;;;1.95;81.34;97910.38;5115546;27;20065;-46
2022/02/19 02:38:06;;;;;;;1.55;0.95;;;;;;;2.08;81.46;97924.53;5131522;27;20042;-46
2022/02/19 02:40:33;;;;;;;7.97;1.80;;;;;;;2.08;81.68;97924.53;5081310;27;21737;-49
2022/02/19 02:43:04;;;;;;;2.58;1.55;;;;;;;1.96;81.74;97904.38;5132469;27;20038;-48
2022/02/19 02:45:30;;;;;;;5.18;2.13;;;;;;;2.09;81.75;97910.78;5115273;27;20073;-50
2022/02/19 02:47:57;;;;;;;3.15;1.98;;;;;;;2.12;81.43;97915.00;5114475;27;20038;-47
2022/02/19 02:50:29;;;;;;;3.88;1.83;;;;;;;2.10;81.54;97920.16;5115189;27;20092;-47
2022/02/19 02:52:55;;;;;;;3.75;1.60;;;;;;;2.10;81.81;97920.16;5098626;27;20031;-46
2022/02/19 02:55:21;;;;;;;3.78;1.40;;;;;;;2.12;81.76;97923.53;5115021;27;20033;-49
2022/02/19 02:57:47;;;;;;;2.33;1.50;;;;;;;2.07;81.98;97909.19;5114607;27;20047;-48
2022/02/19 03:00:15;;;;;;;3.00;1.40;;;;;;;2.17;81.67;97930.25;5132153;27;20054;-46
2022/02/19 03:02:42;;;;;;;2.85;0.95;;;;;;;2.14;81.77;97918.38;5132368;27;20058;-49
2022/02/19 03:05:10;;;;;;;3.00;1.70;;;;;;;2.02;81.93;97898.22;5132944;27;20031;-50
2022/02/19 03:07:36;;;;;;;2.47;1.63;;;;;;;2.20;81.70;97925.06;5080636;27;20563;-47
2022/02/19 03:10:05;;;;;;;2.15;1.40;;;;;;;2.20;81.69;97925.88;5114240;27;20555;-48
2022/02/19 03:12:33;;;;;;;4.57;1.70;;;;;;;2.19;82.02;97926.78;5114867;27;20486;-49
2022/02/19 03:14:58;;;;;;;3.53;2.13;;;;;;;2.19;81.93;97934.47;5114410;27;20039;-46
2022/02/19 03:17:24;;;;;;;3.45;1.77;;;;;;;2.18;82.11;97929.38;5084846;27;20056;-48
2022/02/19 03:19:51;;;;;;;3.58;2.10;;;;;;;2.19;82.10;97924.22;5114133;27;20051;-45
2022/02/19 03:22:17;;;;;;;2.45;1.40;;;;;;;2.19;81.93;97918.25;5115389;27;20105;-46
2022/02/19 03:24:43;;;;;;;2.20;1.50;;;;;;;2.20;82.11;97919.94;5110772;28;20044;-48
2022/02/19 03:27:09;;;;;;;2.15;1.73;;;;;;;2.11;82.53;97924.41;5114603;27;20526;-45
2022/02/19 03:29:36;;;;;;;4.18;2.15;;;;;;;2.13;82.78;97924.38;5093962;28;20423;-46
2022/02/19 03:32:03;;;;;;;2.78;2.10;;;;;;;2.16;82.37;97926.84;5114765;27;20047;-47
2022/02/19 03:34:29;;;;;;;4.35;2.17;;;;;;;2.15;82.42;97914.09;5114241;27;20042;-48
2022/02/19 03:36:56;;;;;;;3.97;1.92;;;;;;;2.27;82.02;97919.69;5113469;27;20126;-49
2022/02/19 03:39:21;;;;;;;3.85;1.95;;;;;;;2.31;81.68;97930.69;5130644;27;20117;-45
2022/02/19 03:41:47;;;;;;;4.05;2.22;;;;;;;2.24;81.96;97912.09;5132553;27;20050;-46
2022/02/19 03:44:15;;;;;;;2.25;1.73;;;;;;;2.35;81.52;97924.59;5114435;27;20064;-46
2022/02/19 03:46:53;;;;;;;3.58;1.55;;;;;;;2.33;81.05;97922.06;5096023;27;20057;-45
2022/02/19 03:49:48;;;;;;;1.90;1.45;;;;;;;2.30;81.35;97917.06;5090912;27;20130;-45
2022/02/19 03:52:14;;;;;;;3.13;2.10;;;;;;;2.27;81.64;97917.13;5113031;27;20125;-46
2022/02/19 03:54:41;;;;;;;3.15;2.10;;;;;;;2.28;81.91;97912.84;5114124;27;20344;-50
2022/02/19 03:57:07;;;;;;;3.83;2.30;;;;;;;2.36;81.59;97909.16;5112032;27;20430;-46
2022/02/19 03:59:33;;;;;;;2.50;2.10;;;;;;;2.44;80.98;97912.34;5113302;27;20042;-46
2022/02/19 04:02:01;;;;;;;2.67;1.30;;;;;;;2.42;80.42;97914.09;5096963;27;20430;-46
2022/02/19 04:04:28;;;;;;;6.43;2.10;;;;;;;2.24;80.37;97881.34;5113769;27;20047;-48
2022/02/19 04:06:55;;;;;;;1.95;1.25;;;;;;;2.46;80.30;97899.47;5130444;27;20434;-47
2022/02/19 04:09:44;;;;;;;4.85;2.42;;;;;;;2.44;80.21;97890.97;5125567;27;20109;-48
2022/02/19 04:12:10;;;;;;;4.10;2.40;;;;;;;2.44;80.30;97904.66;5130188;27;20049;-47
2022/02/19 04:14:37;;;;;;;3.55;2.40;;;;;;;2.46;80.11;97895.16;5130991;27;20526;-49
2022/02/19 04:17:05;;;;;;;4.20;1.48;;;;;;;2.42;80.40;97908.97;5096364;27;20043;-45
2022/02/19 04:19:31;;;;;;;3.65;2.20;;;;;;;2.42;80.17;97903.84;5130159;27;20050;-48
2022/02/19 04:21:57;;;;;;;3.17;2.22;;;;;;;2.48;80.02;97902.81;5102780;28;20047;-48
2022/02/19 04:24:25;;;;;;;2.45;1.63;;;;;;;2.49;79.79;97901.94;5110561;27;20044;-47
2022/02/19 04:27:00;;;;;;;3.72;2.35;;;;;;;2.45;80.29;97901.19;5130306;27;20035;-50
2022/02/19 04:29:27;;;;;;;4.43;2.08;;;;;;;2.48;80.20;97893.41;5129843;27;20126;-45
2022/02/19 04:31:58;;;;;;;3.00;2.28;;;;;;;2.52;79.67;97889.84;5096190;27;20146;-46
2022/02/19 04:34:35;;;;;;;7.97;2.90;;;;;;;2.60;79.76;97887.06;5130842;27;20047;-44
2022/02/19 04:37:00;;;;;;;3.85;2.20;;;;;;;2.59;79.21;97879.41;5096054;28;20039;-47
2022/02/19 04:39:31;;;;;;;4.57;1.60;;;;;;;2.43;79.35;97853.41;5113184;28;20039;-47
2022/02/19 04:42:00;;;;;;;6.63;2.45;;;;;;;2.50;79.66;97872.84;5088687;28;20445;-46
2022/02/19 04:44:26;;;;;;;7.78;2.15;;;;;;;2.48;79.64;97883.16;5130280;27;20053;-47
2022/02/19 04:46:54;;;;;;;3.17;1.67;;;;;;;2.50;79.87;97872.84;5129906;27;20495;-45
2022/02/19 04:49:20;;;;;;;4.55;2.20;;;;;;;2.48;80.16;97872.88;5112754;28;20043;-46
2022/02/19 04:51:47;;;;;;;4.25;2.08;;;;;;;2.39;79.93;97850.09;5112742;28;20088;-46
2022/02/19 04:54:12;;;;;;;1.98;1.50;;;;;;;2.48;79.94;97867.75;5113416;28;20479;-47
2022/02/19 04:56:40;;;;;;;5.10;2.38;;;;;;;2.47;80.05;97862.66;5131206;28;20061;-46
2022/02/19 04:59:08;;;;;;;2.40;1.52;;;;;;;2.51;80.19;97859.97;5108537;28;20119;-47
2022/02/19 05:01:40;;;;;;;4.55;2.10;;;;;;;2.50;80.12;97844.63;5092684;28;20055;-48
2022/02/19 05:04:19;;;;;;;4.63;2.55;;;;;;;2.54;79.94;97849.63;5100285;27;20043;-46
2022/02/19 05:07:07;;;;;;;2.97;1.30;;;;;;;2.51;80.02;97854.81;5110221;28;20043;-49
2022/02/19 05:09:34;;;;;;;4.57;2.30;;;;;;;2.43;80.62;97861.94;5099565;27;20410;-45
2022/02/19 05:12:05;;;;;;;2.75;1.67;;;;;;;2.53;80.60;97877.88;5099161;27;20510;-44
2022/02/19 05:14:32;;;;;;;2.60;1.75;;;;;;;2.44;80.72;97860.22;5117228;27;20047;-45
2022/02/19 05:17:04;;;;;;;4.13;2.13;;;;;;;2.46;80.80;97866.16;5116534;27;20050;-48
2022/02/19 05:19:39;;;;;;;2.92;1.85;;;;;;;2.31;81.20;97849.47;5096461;28;20082;-52
2022/02/19 05:22:05;;;;;;;4.68;2.67;;;;;;;2.54;81.15;97871.84;5094843;27;20176;-47
2022/02/19 05:24:32;;;;;;;5.13;2.72;;;;;;;2.66;80.66;97868.06;5134184;27;20039;-47
2022/02/19 05:27:08;;;;;;;3.45;1.92;;;;;;;2.67;79.76;97867.19;5133862;27;20039;-46
2022/02/19 05:29:35;;;;;;;7.88;2.60;;;;;;;2.74;79.89;97877.19;5135120;27;20043;-49
2022/02/19 05:32:02;;;;;;;3.67;2.05;;;;;;;2.80;79.55;97882.13;5116858;27;20039;-48
2022/02/19 05:34:50;;;;;;;5.35;2.33;;;;;;;2.73;79.21;97875.50;5135131;27;20429;-46
2022/02/19 05:37:16;;;;;;;3.22;2.05;;;;;;;2.78;79.20;97881.34;5133341;27;20054;-47
2022/02/19 05:39:48;;;;;;;4.18;2.10;;;;;;;2.81;78.98;97881.25;5115550;27;20418;-46
2022/02/19 05:42:15;;;;;;;3.28;1.70;;;;;;;2.70;78.09;97883.31;5116590;27;20042;-46
2022/02/19 05:44:43;;;;;;;3.60;1.20;;;;;;;2.56;78.33;97883.72;5105420;27;20046;-50
2022/02/19 05:47:09;;;;;;;5.72;2.20;;;;;;;2.60;78.59;97876.81;5099041;27;20418;-47
2022/02/19 05:49:40;;;;;;;4.97;2.03;;;;;;;2.68;78.39;97869.69;5133116;27;20115;-48
2022/02/19 05:52:31;;;;;;;1.50;1.10;;;;;;;2.68;76.96;97868.84;5128074;27;20140;-49
2022/02/19 05:55:13;;;;;;;2.95;1.83;;;;;;;2.67;77.00;97867.19;5101932;27;20043;-46
2022/02/19 05:57:40;;;;;;;1.77;1.30;;;;;;;2.56;77.07;97865.78;5116259;27;20054;-49
2022/02/19 06:00:07;;;;;;;3.13;1.40;;;;;;;2.51;77.74;97861.72;5133102;27;20045;-48
2022/02/19 06:02:42;;;;;;;3.92;1.40;;;;;;;2.58;77.70;97857.19;5133319;27;20518;-47
2022/02/19 06:05:08;;;;;;;2.47;1.50;;;;;;;2.63;76.82;97856.16;5098259;28;20495;-47
2022/02/19 06:07:41;;;;;;;2.15;1.33;;;;;;;2.64;76.52;97862.13;5100304;28;20050;-46
2022/02/19 06:10:08;;;;;;;1.05;0.95;;;;;;;2.58;76.36;97857.19;5131058;28;20290;-47
2022/02/19 06:12:35;;;;;;;1.67;1.13;;;;;;;2.45;76.45;97841.38;5106512;28;20039;-47
2022/02/19 06:15:09;;;;;;;2.35;1.60;;;;;;;2.66;76.47;97874.03;5096938;28;20122;-49
2022/02/19 06:17:53;;;;;;;3.17;2.03;;;;;;;2.62;76.76;97866.50;5117360;28;20043;-46
2022/02/19 06:20:20;;;;;;;2.00;1.40;;;;;;;2.76;76.37;97882.28;5114016;28;20046;-46
2022/02/19 06:22:47;;;;;;;3.58;2.00;;;;;;;2.67;76.82;97873.13;5114286;28;20080;-46
2022/02/19 06:25:13;;;;;;;2.33;1.40;;;;;;;2.62;76.67;97877.56;5132290;28;20046;-53
2022/02/19 06:27:44;;;;;;;3.08;2.05;;;;;;;2.59;77.16;97877.69;5114374;28;20042;-51
2022/02/19 06:30:20;;;;;;;3.38;1.42;;;;;;;2.45;77.17;97870.44;5131298;28;20057;-46
2022/02/19 06:32:53;;;;;;;3.55;1.90;;;;;;;2.52;77.06;97884.72;5107959;28;20053;-45
2022/02/19 06:35:19;;;;;;;3.42;1.35;;;;;;;2.51;76.96;97879.66;5114363;28;20039;-50
2022/02/19 06:37:46;;;;;;;2.30;1.70;;;;;;;2.56;77.31;97895.75;5093844;28;20035;-47
2022/02/19 06:40:15;;;;;;;4.10;2.05;;;;;;;2.67;76.70;97869.75;5113275;28;20107;-45
2022/02/19 06:42:42;;;;;;;5.25;2.63;;;;;;;2.71;76.73;97876.47;5113403;28;20046;-48
2022/02/19 06:45:23;;;;;;;4.28;2.05;;;;;;;2.74;76.62;97881.47;5097300;28;20063;-47
2022/02/19 06:47:51;;;;;;;3.28;1.73;;;;;;;2.65;76.07;97858.69;5113827;28;20047;-47
2022/02/19 06:50:20;;;;;;;5.78;2.25;;;;;;;2.79;76.03;97869.34;5114333;28;20043;-46
2022/02/19 06:52:47;;;;;;;3.28;2.20;;;;;;;2.79;75.91;97864.22;5112987;28;20043;-46
2022/02/19 06:55:14;;;;;;;3.50;2.00;;;;;;;2.83;75.76;97860.66;5097179;28;20112;-46
2022/02/19 06:57:40;;;;;;;2.60;1.73;;;;;;;2.93;75.54;97869.75;5127745;28;20538;-49
2022/02/19 07:00:08;;;;;;;4.75;1.70;;;;;;;2.91;75.04;97869.78;5113901;28;20043;-46
2022/02/19 07:02:38;;;;;;;3.35;1.35;;;;;;;2.89;74.99;97875.84;5059217;28;1268652;-45
2022/02/19 07:05:04;;;;;;;2.58;1.35;;;;;;;2.73;74.91;97841.31;5111471;28;20043;-46
2022/02/19 07:07:59;;;;;;;5.20;1.70;;;;;;;2.98;74.81;97857.59;5074738;28;20105;-46
2022/02/19 07:10:28;;;;;;;3.72;1.60;;;;;;;3.12;74.22;97852.00;5111491;28;20031;-46
2022/02/19 07:12:55;;;;;;;2.42;1.50;;;;;;;3.13;73.86;97862.22;5109298;28;20565;-45
2022/02/19 07:15:21;;;;;;;3.55;1.25;;;;;;;3.13;74.00;97833.16;5110723;28;20048;-47
2022/02/19 07:17:59;;;;;;;4.15;1.63;;;;;;;3.30;73.27;97851.34;5094015;28;20088;-46
2022/02/19 07:20:27;;;;;;;3.13;1.42;;;;;;;3.36;72.87;97826.31;5111044;28;20082;-45
2022/02/19 07:22:53;;;;;;;1.88;1.25;;;;;;;3.51;71.88;97835.19;5110758;28;20050;-47
2022/02/19 07:25:22;;;;;;;2.92;1.58;;;;;;;3.61;71.37;97799.75;5110099;28;20180;-48
2022/02/19 07:27:50;;;;;;;2.60;1.45;;;;;;;3.65;70.60;97801.31;5090708;28;20039;-46
2022/02/19 07:30:19;;;;;;;2.45;1.58;;;;;;;3.66;70.61;97785.84;5100899;28;20046;-50
2022/02/19 07:32:47;;;;;;;4.50;1.92;;;;;;;4.05;70.01;97804.06;5126122;27;20039;-48
2022/02/19 07:35:27;;;;;;;2.35;1.40;;;;;;;4.06;69.62;97789.47;5096067;28;20043;-51
2022/02/19 07:37:53;;;;;;;4.32;1.70;;;;;;;4.23;68.85;97793.06;5075840;28;20043;-47
2022/02/19 07:40:19;;;;;;;5.15;2.00;;;;;;;4.12;68.57;97787.50;5127636;27;20061;-48
2022/02/19 07:42:45;;;;;;;2.25;1.17;;;;;;;4.06;68.78;97767.16;5126463;27;20051;-49
2022/02/19 07:45:29;;;;;;;1.92;1.17;;;;;;;3.99;69.21;97778.56;5087950;28;20040;-44
2022/02/19 07:48:18;;;;;;;5.22;2.47;;;;;;;4.06;68.99;97762.03;5101844;28;20086;-46
2022/02/19 07:59:52;;;;;;;4.85;2.00;;;;;;;5.18;65.63;97756.53;5130530;27;20036;-47
2022/02/19 08:02:18;;;;;;;3.10;2.10;;;;;;;4.90;65.61;97746.56;5109394;28;20442;-45
2022/02/19 08:04:45;;;;;;;6.07;2.25;;;;;;;4.78;65.75;97747.06;5111614;27;20057;-48
2022/02/19 08:07:10;;;;;;;5.57;2.08;;;;;;;4.51;66.04;97737.91;5115628;27;20043;-47
2022/02/19 08:09:36;;;;;;;6.10;2.00;;;;;;;4.49;66.65;97740.56;5112337;27;20035;-47
2022/02/19 08:12:02;;;;;;;3.75;2.65;;;;;;;4.41;66.88;97726.34;5127601;27;20036;-46
2022/02/19 08:14:28;;;;;;;3.00;1.83;;;;;;;4.47;66.54;97726.09;5121234;27;20039;-45
2022/02/19 08:16:54;;;;;;;2.85;1.55;;;;;;;4.37;66.61;97727.38;5119664;27;20031;-46
2022/02/19 08:19:20;;;;;;;5.20;1.85;;;;;;;4.28;67.07;97753.47;5119817;27;20061;-45
2022/02/19 08:21:45;;;;;;;3.92;2.08;;;;;;;4.26;66.86;97715.78;5119507;27;20045;-46
2022/02/19 08:24:11;;;;;;;3.67;1.80;;;;;;;4.38;66.60;97713.63;5115367;27;20061;-48
2022/02/19 08:26:37;;;;;;;3.97;2.10;;;;;;;4.49;67.01;97694.28;5122172;27;20096;-48
2022/02/19 08:29:04;;;;;;;5.10;2.00;;;;;;;4.58;66.53;97670.72;5116809;27;20040;-45
2022/02/19 08:31:30;;;;;;;6.72;2.47;;;;;;;4.92;65.30;97675.22;5121177;27;20046;-46
2022/02/19 08:33:55;;;;;;;3.13;1.98;;;;;;;4.88;65.27;97658.25;5132936;27;20039;-46
2022/02/19 08:36:21;;;;;;;3.85;1.42;;;;;;;4.99;65.15;97679.22;5132204;27;20027;-47
2022/02/19 08:38:47;;;;;;;3.95;2.30;;;;;;;4.97;65.26;97667.31;5120811;27;20092;-48
2022/02/19 08:41:13;;;;;;;6.65;2.60;;;;;;;4.94;64.85;97654.56;5120307;27;20036;-47
2022/02/19 08:43:38;;;;;;;6.00;2.63;;;;;;;5.01;64.77;97640.53;5112106;27;20054;-50
2022/02/19 08:46:04;;;;;;;3.35;2.20;;;;;;;4.79;64.38;97621.78;5110238;28;20040;-47
2022/02/19 08:48:31;;;;;;;3.17;2.35;;;;;;;5.00;64.71;97637.13;5110798;28;20084;-48
2022/02/19 08:50:59;;;;;;;2.55;1.92;;;;;;;4.98;64.05;97615.75;5110500;28;20452;-47
2022/02/19 08:53:25;;;;;;;2.42;1.48;;;;;;;5.07;63.60;97620.50;5110159;28;20039;-46
2022/02/19 08:55:51;;;;;;;4.35;2.03;;;;;;;5.22;63.79;97633.56;5120955;27;20034;-46
2022/02/19 08:58:17;;;;;;;3.97;1.65;;;;;;;5.06;63.57;97607.69;5117367;28;20130;-45
2022/02/19 09:00:43;;;;;;;2.38;1.60;;;;;;;5.11;63.16;97606.56;5117332;28;20035;-48
2022/02/19 09:03:08;;;;;;;3.75;1.80;;;;;;;5.02;63.34;97601.00;5105733;28;20113;-47
2022/02/19 09:05:34;;;;;;;3.72;1.65;;;;;;;4.90;64.31;97606.72;5109877;28;20046;-48
2022/02/19 09:08:00;;;;;;;4.05;1.60;;;;;;;4.98;63.37;97584.84;5101068;28;20092;-47
2022/02/19 09:10:26;;;;;;;2.00;1.17;;;;;;;5.00;63.27;97598.50;5090557;28;20040;-47
2022/02/19 09:12:51;;;;;;;6.05;1.63;;;;;;;4.86;63.09;97569.13;5107521;28;20071;-46
2022/02/19 09:15:20;;;;;;;3.75;1.95;;;;;;;5.01;63.84;97578.75;5110830;28;20043;-47
2022/02/19 09:17:46;;;;;;;3.60;1.50;;;;;;;5.00;62.93;97571.91;5109136;28;20509;-45
2022/02/19 09:20:14;;;;;;;2.22;1.42;;;;;;;5.03;63.10;97602.66;5106474;28;20043;-44
2022/02/19 09:22:39;;;;;;;7.50;1.67;;;;;;;4.86;62.89;97569.97;5084527;28;20042;-44
2022/02/19 09:25:06;;;;;;;6.32;1.63;;;;;;;4.98;63.55;97561.69;5108436;28;20046;-45
2022/02/19 09:27:33;;;;;;;3.88;1.70;;;;;;;5.05;63.39;97573.38;5107005;28;20172;-46
2022/02/19 09:30:00;;;;;;;5.13;1.90;;;;;;;4.99;62.79;97570.25;5107146;28;20059;-47
2022/02/19 09:32:25;;;;;;;3.08;1.63;;;;;;;4.96;63.37;97562.66;5108559;28;20065;-45
2022/02/19 09:34:51;;;;;;;4.43;1.80;;;;;;;4.81;63.08;97560.78;5109340;28;20050;-46
2022/02/19 09:37:17;;;;;;;4.75;1.58;;;;;;;4.74;63.60;97544.78;5109376;28;20134;-48
2022/02/19 09:39:43;;;;;;;2.28;1.42;;;;;;;4.82;63.43;97545.25;5110318;28;20117;-49
2022/02/19 09:42:11;;;;;;;2.60;1.35;;;;;;;4.64;63.43;97531.50;5100033;28;20046;-47
2022/02/19 09:44:37;;;;;;;3.97;1.58;;;;;;;4.76;63.52;97532.69;5109827;28;20285;-47
2022/02/19 09:47:03;;;;;;;3.35;1.80;;;;;;;4.95;62.92;97537.81;5108956;28;20558;-50
2022/02/19 09:49:28;;;;;;;4.07;2.05;;;;;;;5.09;63.19;97527.72;5094346;28;20479;-48
2022/02/19 09:51:55;;;;;;;1.90;0.98;;;;;;;5.02;61.89;97532.28;5113351;27;20164;-46
2022/02/19 09:54:22;;;;;;;4.93;1.50;;;;;;;4.99;62.55;97513.59;5112106;28;20039;-48
2022/02/19 09:56:49;;;;;;;6.55;3.20;;;;;;;4.77;62.79;97510.34;5112410;28;20058;-46
2022/02/19 09:59:14;;;;;;;3.70;1.60;;;;;;;4.93;62.51;97524.19;5120094;27;20118;-47
2022/02/19 10:01:40;;;;;;;2.65;1.30;;;;;;;4.99;62.81;97508.44;5128814;27;20197;-48
2022/02/19 10:04:06;;;;;;;3.78;1.42;;;;;;;4.99;63.26;97503.28;5126028;27;20565;-44
2022/02/19 10:06:34;;;;;;;6.03;1.88;;;;;;;4.97;64.24;97512.84;5118050;27;20558;-45
2022/02/19 10:09:19;;;;;;;3.10;1.60;;;;;;;4.80;64.66;97503.34;5124628;27;20043;-46
2022/02/19 10:11:46;;;;;;;3.15;1.23;;;;;;;4.69;66.28;97500.41;5131256;27;20414;-47
2022/02/19 10:14:29;;;;;;;3.03;1.75;;;;;;;4.55;67.70;97503.59;5127291;27;20038;-47
2022/02/19 10:17:17;;;;;;;3.97;1.40;;;;;;;4.36;69.38;97489.91;5103732;27;20041;-46
2022/02/19 10:19:51;;;;;;;3.35;1.35;;;;;;;4.26;70.52;97497.19;5141991;27;20034;-45
2022/02/19 10:22:19;;;;;;;3.90;1.63;;;;;;;4.17;71.63;97486.47;5139640;27;20046;-48
2022/02/19 10:24:47;;;;;;;2.95;1.40;;;;;;;4.11;72.84;97479.03;5130767;27;20062;-42
2022/02/19 10:27:13;;;;;;;2.92;1.60;;;;;;;4.00;73.87;97487.19;5132854;27;20035;-48
2022/02/19 10:29:55;;;;;;;2.63;1.70;;;;;;;3.96;74.93;97475.38;5100627;28;20051;-44
2022/02/19 10:32:24;;;;;;;3.30;2.10;;;;;;;3.71;76.59;97464.50;5098136;27;20047;-43
2022/02/19 10:35:08;;;;;;;3.88;2.30;;;;;;;3.51;78.59;97470.44;5134213;27;20039;-45
2022/02/19 10:37:50;;;;;;;5.53;1.95;;;;;;;3.28;80.72;97443.16;5134136;27;20039;-46
2022/02/19 10:40:39;;;;;;;3.08;1.80;;;;;;;3.13;82.88;97446.38;5115375;27;20035;-47
2022/02/19 10:43:08;;;;;;;3.90;2.03;;;;;;;2.89;86.08;97432.78;5113997;27;20043;-46
2022/02/19 10:45:35;;;;;;;3.30;1.67;;;;;;;2.80;88.77;97430.56;5123774;27;20525;-44
2022/02/19 10:48:15;;;;;;;6.43;2.28;;;;;;;2.67;91.10;97403.72;5115207;27;20039;-47
2022/02/19 10:50:42;;;;;;;7.32;3.05;;;;;;;2.69;92.67;97403.66;5097856;27;20076;-44
2022/02/19 10:53:08;;;;;;;5.43;2.38;;;;;;;2.71;93.85;97394.19;5132688;27;20118;-49
2022/02/19 10:55:34;;;;;;;6.88;1.92;;;;;;;2.61;94.73;97395.47;5114561;27;20083;-43
2022/02/19 10:58:02;;;;;;;8.90;3.30;;;;;;;2.52;96.24;97382.09;5131616;27;20052;-45
2022/02/19 11:00:29;;;;;;;6.57;2.25;;;;;;;2.55;97.01;97373.44;5132067;27;20047;-44
2022/02/19 11:02:54;;;;;;;4.55;2.65;;;;;;;2.55;98.04;97366.59;5114239;27;20058;-47
2022/02/19 11:05:21;;;;;;;4.97;2.83;;;;;;;2.50;99.38;97377.94;5097463;27;20043;-47
2022/02/19 11:07:49;;;;;;;5.82;2.38;;;;;;;2.43;100.00;97363.66;5128554;27;20710;-48
2022/02/19 11:10:17;;;;;;;4.55;2.20;;;;;;;2.37;100.00;97351.06;5112364;27;20476;-48
2022/02/19 11:12:43;;;;;;;4.90;2.60;;;;;;;2.32;100.00;97353.00;5097922;27;20066;-48
2022/02/19 11:15:10;;;;;;;7.10;2.90;;;;;;;2.16;100.00;97316.03;5114424;27;20046;-47
2022/02/19 11:17:36;;;;;;;5.88;2.15;;;;;;;2.24;100.00;97325.09;5139592;27;20039;-47
2022/02/19 11:20:10;;;;;;;4.95;2.88;;;;;;;2.16;100.00;97326.28;5114648;27;20039;-49
2022/02/19 11:22:38;;;;;;;3.85;2.47;;;;;;;2.10;100.00;97300.00;5118249;27;20031;-54
2022/02/19 11:25:07;;;;;;;4.30;2.40;;;;;;;2.10;100.00;97297.44;5094255;28;20124;-48
2022/02/19 11:27:38;;;;;;;6.93;2.95;;;;;;;2.10;100.00;97304.28;5114509;27;20067;-48
2022/02/19 11:30:06;;;;;;;5.70;2.40;;;;;;;2.07;100.00;97300.13;5114018;27;20046;-46
2022/02/19 11:32:35;;;;;;;6.65;3.03;;;;;;;1.88;100.00;97253.06;5133182;27;20104;-48
2022/02/19 11:35:00;;;;;;;5.75;2.80;;;;;;;2.07;100.00;97283.91;5133009;27;20405;-45
2022/02/19 11:37:26;;;;;;;5.50;2.03;;;;;;;1.97;100.00;97269.78;5132343;27;20039;-46
2022/02/19 11:40:04;;;;;;;6.32;2.90;;;;;;;1.92;100.00;97267.41;5130774;27;20043;-46
2022/02/19 11:42:43;;;;;;;7.30;2.38;;;;;;;1.94;100.00;97264.78;5094312;27;20032;-47
2022/02/19 11:45:19;;;;;;;6.90;3.33;;;;;;;1.92;100.00;97256.34;5128354;27;20130;-47
2022/02/19 11:47:45;;;;;;;8.27;3.30;;;;;;;1.93;100.00;97245.19;5113620;27;20035;-46
2022/02/19 11:50:21;;;;;;;5.88;3.05;;;;;;;1.93;100.00;97252.88;5131920;27;20121;-46
2022/02/19 11:53:23;;;;;;;6.07;3.25;;;;;;;1.89;100.00;97236.78;5114085;27;20046;-47
2022/02/19 11:55:49;;;;;;;5.45;3.08;;;;;;;1.86;100.00;97230.94;5113856;27;20103;-47
2022/02/19 11:58:22;;;;;;;6.88;2.70;;;;;;;1.89;100.00;97252.16;5114355;27;20069;-47
2022/02/19 12:01:01;;;;;;;6.45;2.42;;;;;;;1.87;100.00;97245.44;5128361;27;20043;-47